Time;durP1;ratioP1;P1;durP2;ratioP2;P2;SDS_P1;SDS_P2;PMS_P1;PMS_P2;Temp;Humidity;BMP_temperature;BMP_pressure;BME280_temperature;BME280_humidity;BME280_pressure;Samples;Min_cycle;Max_cycle;Signal;HPM_P1;HPM_P2
2021/05/03 00:00:35;;;;;;;1.17;1.08;;;7.70;62.60;;;;;;4988526;28;20027;-92
2021/05/03 00:03:02;;;;;;;1.20;1.10;;;7.70;62.50;;;;;;4994581;28;20069;-93
2021/05/03 00:05:27;;;;;;;1.98;1.10;;;7.70;62.50;;;;;;4993583;28;20216;-92
2021/05/03 00:07:54;;;;;;;1.30;1.20;;;7.70;62.50;;;;;;4995337;28;20511;-93
2021/05/03 00:10:19;;;;;;;1.17;1.10;;;7.70;62.50;;;;;;4992987;28;20033;-94
2021/05/03 00:12:45;;;;;;;1.10;1.10;;;7.70;62.50;;;;;;4990329;28;20022;-91
2021/05/03 00:15:13;;;;;;;1.83;1.10;;;7.70;62.50;;;;;;4993455;28;20077;-93
2021/05/03 00:17:39;;;;;;;1.30;1.20;;;7.70;62.50;;;;;;4992762;28;20029;-92
2021/05/03 00:20:07;;;;;;;1.88;1.60;;;7.70;62.50;;;;;;4991349;28;20033;-91
2021/05/03 00:22:33;;;;;;;1.40;1.30;;;7.70;62.80;;;;;;4979401;28;20058;-91
2021/05/03 00:24:59;;;;;;;1.65;1.50;;;7.70;62.90;;;;;;4990535;28;20108;-91
2021/05/03 00:27:24;;;;;;;2.42;1.38;;;7.70;62.90;;;;;;5011012;28;20134;-91
2021/05/03 00:29:50;;;;;;;1.98;1.48;;;7.60;63.00;;;;;;4989139;28;20025;-92
2021/05/03 00:32:15;;;;;;;1.92;1.50;;;7.60;63.10;;;;;;4995497;28;20489;-91
2021/05/03 00:34:41;;;;;;;1.75;1.48;;;7.60;63.10;;;;;;4993632;28;20433;-92
2021/05/03 00:37:06;;;;;;;2.15;1.42;;;7.60;63.20;;;;;;4994257;28;20539;-91
2021/05/03 00:39:32;;;;;;;1.50;1.38;;;7.50;63.20;;;;;;4992927;28;20015;-91
2021/05/03 00:41:58;;;;;;;1.42;1.30;;;7.50;63.40;;;;;;4986179;28;20053;-91
2021/05/03 00:44:26;;;;;;;3.28;1.50;;;7.50;63.40;;;;;;4997980;28;20034;-92
2021/05/03 00:46:54;;;;;;;1.50;1.40;;;7.50;63.60;;;;;;4995224;28;20026;-91
2021/05/03 00:49:20;;;;;;;2.33;1.48;;;7.50;63.70;;;;;;4993015;28;20026;-91
2021/05/03 00:51:46;;;;;;;1.50;1.40;;;7.40;63.60;;;;;;4993485;28;20015;-92
2021/05/03 00:54:11;;;;;;;1.70;1.48;;;7.40;63.70;;;;;;4993651;28;20482;-91
2021/05/03 00:56:37;;;;;;;1.63;1.52;;;7.40;63.70;;;;;;4993797;28;20026;-92
2021/05/03 00:59:02;;;;;;;1.55;1.45;;;7.30;63.70;;;;;;4992168;28;20033;-92
2021/05/03 01:01:28;;;;;;;3.58;1.52;;;7.30;63.90;;;;;;4995916;28;20168;-92
2021/05/03 01:03:53;;;;;;;1.55;1.38;;;7.30;63.90;;;;;;5001207;28;20034;-92
2021/05/03 01:06:19;;;;;;;1.63;1.38;;;7.30;64.00;;;;;;4994638;28;20053;-91
2021/05/03 01:08:46;;;;;;;1.98;1.75;;;7.20;64.00;;;;;;4993348;28;20072;-93
2021/05/03 01:11:12;;;;;;;2.83;1.70;;;7.20;64.30;;;;;;4990163;28;20065;-92
2021/05/03 01:13:39;;;;;;;2.20;1.75;;;7.20;64.40;;;;;;4998166;28;20033;-90
2021/05/03 01:16:05;;;;;;;4.43;1.80;;;7.20;64.40;;;;;;4991295;28;20018;-92
2021/05/03 01:18:34;;;;;;;3.22;2.20;;;7.10;64.40;;;;;;4991824;28;20042;-93
2021/05/03 01:21:00;;;;;;;2.67;2.28;;;7.10;64.50;;;;;;4991713;28;20007;-92
2021/05/03 01:23:26;;;;;;;3.05;1.60;;;7.10;64.60;;;;;;5005994;28;20029;-92
2021/05/03 01:25:51;;;;;;;1.85;1.65;;;7.00;64.60;;;;;;4999233;28;20438;-93
2021/05/03 01:28:17;;;;;;;3.72;2.15;;;7.00;64.60;;;;;;4993249;28;20226;-88
2021/05/03 01:30:45;;;;;;;2.85;2.28;;;7.00;64.80;;;;;;4993222;28;20032;-91
2021/05/03 01:33:13;;;;;;;2.40;2.20;;;6.90;65.40;;;;;;4992740;28;20026;-91
2021/05/03 01:35:41;;;;;;;2.90;2.30;;;6.80;65.60;;;;;;4991985;28;20037;-91
2021/05/03 01:38:07;;;;;;;3.08;2.05;;;6.80;65.60;;;;;;4993194;28;20026;-90
2021/05/03 01:40:37;;;;;;;4.35;2.65;;;6.80;65.70;;;;;;4975904;28;20027;-90
2021/05/03 01:43:15;;;;;;;4.03;2.42;;;6.70;65.80;;;;;;5024644;28;20034;-90
2021/05/03 01:45:42;;;;;;;3.75;2.45;;;6.70;66.00;;;;;;4977636;28;20032;-92
2021/05/03 01:48:09;;;;;;;3.45;2.40;;;6.70;66.10;;;;;;4995719;28;20027;-93
2021/05/03 01:50:35;;;;;;;4.20;2.70;;;6.60;66.30;;;;;;4997044;28;20523;-93
2021/05/03 01:53:02;;;;;;;3.78;3.00;;;6.50;66.60;;;;;;4996665;28;20026;-92
2021/05/03 01:55:29;;;;;;;4.03;3.35;;;6.50;67.20;;;;;;4995736;28;20030;-91
2021/05/03 01:57:54;;;;;;;5.32;2.92;;;6.40;67.60;;;;;;4995165;28;20066;-91
2021/05/03 02:00:20;;;;;;;4.25;3.45;;;6.40;67.90;;;;;;4996769;28;20047;-90
2021/05/03 02:02:47;;;;;;;4.78;3.50;;;6.40;68.10;;;;;;4996158;28;20031;-91
2021/05/03 02:05:19;;;;;;;5.20;3.40;;;6.30;68.60;;;;;;4996392;28;20050;-91
2021/05/03 02:07:45;;;;;;;3.90;3.35;;;6.20;69.00;;;;;;5005088;28;20034;-90
2021/05/03 02:10:11;;;;;;;6.13;4.55;;;6.20;69.10;;;;;;5009994;28;20520;-92
2021/05/03 02:12:38;;;;;;;5.78;3.90;;;6.20;69.30;;;;;;4998421;28;20026;-92
2021/05/03 02:15:07;;;;;;;4.07;3.05;;;6.10;69.80;;;;;;4998453;28;20052;-92
2021/05/03 02:17:33;;;;;;;4.65;3.40;;;6.10;69.90;;;;;;4995474;28;20088;-93
2021/05/03 02:19:59;;;;;;;4.85;3.58;;;6.10;69.70;;;;;;4996257;28;20018;-92
2021/05/03 02:22:24;;;;;;;3.80;3.00;;;6.10;69.80;;;;;;4999963;28;20672;-93
2021/05/03 02:24:50;;;;;;;4.65;3.80;;;6.10;69.70;;;;;;4995093;28;20018;-92
2021/05/03 02:27:15;;;;;;;5.10;4.05;;;6.10;70.00;;;;;;4996841;28;20019;-93
2021/05/03 02:29:41;;;;;;;4.50;3.60;;;6.00;70.40;;;;;;4996203;28;20478;-93
2021/05/03 02:32:06;;;;;;;5.05;3.97;;;5.90;70.70;;;;;;4996402;28;20026;-93
2021/05/03 02:34:32;;;;;;;5.55;4.13;;;6.00;70.80;;;;;;4996109;28;20050;-93
2021/05/03 02:36:58;;;;;;;4.05;3.20;;;6.00;70.80;;;;;;4996404;28;20034;-93
2021/05/03 02:39:23;;;;;;;4.80;3.75;;;6.00;70.80;;;;;;4995517;28;20026;-93
2021/05/03 02:41:49;;;;;;;6.75;4.50;;;6.00;71.00;;;;;;5007688;28;20022;-93
2021/05/03 02:44:15;;;;;;;6.60;4.95;;;5.90;72.00;;;;;;4996277;28;20030;-92
2021/05/03 02:46:41;;;;;;;7.05;5.50;;;5.90;71.70;;;;;;4996733;28;20088;-93
2021/05/03 02:49:07;;;;;;;5.78;4.63;;;5.90;72.00;;;;;;5003645;28;20485;-91
2021/05/03 02:51:33;;;;;;;6.65;4.70;;;5.80;72.40;;;;;;5016077;28;20030;-93
2021/05/03 02:53:59;;;;;;;6.03;4.00;;;5.80;72.40;;;;;;4999917;28;20018;-93
2021/05/03 02:56:24;;;;;;;6.70;4.55;;;5.90;72.30;;;;;;4996251;28;20500;-94
2021/05/03 02:58:50;;;;;;;7.25;4.95;;;5.80;72.40;;;;;;5005163;28;20113;-94
2021/05/03 03:01:15;;;;;;;8.00;5.60;;;5.90;72.60;;;;;;4995009;28;20065;-91
2021/05/03 03:03:41;;;;;;;8.43;5.50;;;5.80;72.70;;;;;;5002388;28;20030;-91
2021/05/03 03:06:06;;;;;;;5.63;4.13;;;5.80;72.90;;;;;;5003543;28;20117;-91
2021/05/03 03:08:32;;;;;;;6.82;5.43;;;5.80;72.90;;;;;;4990812;28;20045;-92
2021/05/03 03:10:58;;;;;;;6.47;4.50;;;5.80;72.90;;;;;;4989973;28;20021;-91
2021/05/03 03:13:23;;;;;;;5.88;4.38;;;5.80;72.90;;;;;;4995706;28;20034;-91
2021/05/03 03:15:49;;;;;;;5.80;4.70;;;5.90;72.70;;;;;;4995471;28;20023;-92
2021/05/03 03:18:15;;;;;;;7.07;5.47;;;5.90;72.90;;;;;;4994295;28;20453;-91
2021/05/03 03:20:40;;;;;;;5.57;4.78;;;5.90;72.90;;;;;;5003654;28;20014;-92
2021/05/03 03:23:06;;;;;;;6.20;4.50;;;5.90;72.90;;;;;;4994932;28;20061;-92
2021/05/03 03:25:32;;;;;;;5.55;4.40;;;5.80;72.90;;;;;;4994159;28;20019;-92
2021/05/03 03:27:57;;;;;;;5.78;4.03;;;5.80;72.70;;;;;;4997182;28;20056;-92
2021/05/03 03:30:23;;;;;;;6.35;4.63;;;5.90;72.80;;;;;;4999942;28;20113;-94
2021/05/03 03:32:49;;;;;;;7.63;5.28;;;5.90;72.70;;;;;;4994906;28;20046;-92
2021/05/03 03:35:16;;;;;;;6.90;5.05;;;5.80;72.90;;;;;;4995180;28;20032;-91
2021/05/03 03:37:43;;;;;;;8.55;5.18;;;5.80;73.10;;;;;;4993716;28;20018;-91
2021/05/03 03:40:09;;;;;;;6.28;4.32;;;5.80;73.10;;;;;;4994495;28;20065;-91
2021/05/03 03:42:35;;;;;;;4.72;4.00;;;5.80;73.00;;;;;;4994695;28;20054;-91
2021/05/03 03:45:01;;;;;;;7.15;4.35;;;5.90;72.90;;;;;;4993467;28;20065;-92
2021/05/03 03:47:27;;;;;;;7.30;4.97;;;5.90;72.80;;;;;;4994859;28;20513;-93
2021/05/03 03:49:52;;;;;;;8.68;6.20;;;5.90;72.90;;;;;;4991893;28;20464;-92
2021/05/03 03:52:19;;;;;;;7.15;4.78;;;5.90;73.10;;;;;;4987030;28;20077;-93
2021/05/03 03:54:44;;;;;;;6.03;4.85;;;5.80;73.20;;;;;;4975490;28;20069;-92
2021/05/03 03:57:10;;;;;;;6.65;5.05;;;5.90;73.20;;;;;;4993032;28;20477;-92
2021/05/03 03:59:40;;;;;;;5.65;4.50;;;6.00;73.30;;;;;;4991845;28;20089;-93
2021/05/03 04:02:06;;;;;;;6.85;5.32;;;5.90;73.00;;;;;;4992389;28;20126;-93
2021/05/03 04:04:32;;;;;;;5.53;4.15;;;5.90;73.20;;;;;;4995095;28;20045;-93
2021/05/03 04:07:06;;;;;;;8.48;5.63;;;5.90;73.10;;;;;;4994973;28;20022;-93
2021/05/03 04:12:18;;;;;;;7.32;5.90;;;5.90;73.40;;;;;;4997174;28;20023;-91
2021/05/03 04:23:34;;;;;;;7.53;5.05;;;5.80;73.50;;;;;;4994457;28;20049;-91
2021/05/03 04:25:57;;;;;;;8.10;5.82;;;5.80;73.30;;;;;;4993878;28;20041;-89
2021/05/03 04:28:23;;;;;;;7.03;5.45;;;5.80;73.90;;;;;;4991937;28;20030;-91
2021/05/03 04:30:48;;;;;;;8.15;6.47;;;5.80;73.20;;;;;;4994239;28;20069;-92
2021/05/03 04:33:14;;;;;;;9.05;7.28;;;5.80;73.30;;;;;;5006227;28;20073;-92
2021/05/03 04:35:39;;;;;;;9.80;7.57;;;5.80;73.20;;;;;;4998747;28;20101;-93
2021/05/03 04:38:05;;;;;;;10.13;7.60;;;5.80;73.30;;;;;;4994109;28;20027;-91
2021/05/03 04:40:31;;;;;;;9.57;7.28;;;5.80;73.30;;;;;;4991706;28;20061;-91
2021/05/03 04:42:56;;;;;;;12.38;8.68;;;5.80;73.20;;;;;;5010821;28;20054;-89
2021/05/03 04:45:22;;;;;;;12.63;8.02;;;5.80;73.30;;;;;;4993631;28;20022;-94
2021/05/03 04:47:48;;;;;;;11.82;7.53;;;5.80;73.30;;;;;;4979425;28;20023;-94
2021/05/03 04:50:13;;;;;;;8.52;6.18;;;5.80;73.10;;;;;;4992846;28;20090;-89
2021/05/03 04:52:39;;;;;;;11.50;8.23;;;5.90;73.00;;;;;;4993236;28;20046;-91
2021/05/03 04:55:06;;;;;;;9.70;7.03;;;5.90;72.90;;;;;;4991836;28;20026;-90
2021/05/03 04:57:32;;;;;;;6.93;5.43;;;5.90;72.80;;;;;;4993579;28;20030;-91
2021/05/03 04:59:57;;;;;;;9.23;6.47;;;6.00;72.50;;;;;;4999170;28;20030;-91
2021/05/03 05:02:24;;;;;;;8.40;7.00;;;6.00;72.40;;;;;;4993047;28;20025;-91
2021/05/03 05:04:52;;;;;;;12.57;9.10;;;6.00;72.40;;;;;;4987740;28;20420;-90
2021/05/03 05:07:20;;;;;;;8.75;7.00;;;6.10;72.40;;;;;;4974583;28;20397;-91
2021/05/03 05:09:45;;;;;;;9.23;7.18;;;6.10;72.30;;;;;;4992679;28;20022;-91
2021/05/03 05:12:11;;;;;;;9.50;7.55;;;6.10;72.10;;;;;;4992433;28;20018;-90
2021/05/03 05:14:37;;;;;;;9.85;7.63;;;6.20;71.90;;;;;;4993324;28;20026;-90
2021/05/03 05:17:03;;;;;;;9.93;6.68;;;6.20;71.90;;;;;;4992326;28;20033;-90
2021/05/03 05:19:28;;;;;;;10.18;8.15;;;6.20;71.80;;;;;;4991350;28;20156;-90
2021/05/03 05:21:54;;;;;;;10.00;7.57;;;6.20;71.80;;;;;;4979011;28;20046;-90
2021/05/03 05:24:20;;;;;;;12.73;9.95;;;6.20;71.70;;;;;;4992625;28;20481;-90
2021/05/03 05:26:45;;;;;;;9.90;7.22;;;6.20;71.70;;;;;;4996388;28;20017;-91
2021/05/03 05:29:11;;;;;;;8.18;6.50;;;6.20;71.70;;;;;;4999606;28;20117;-90
2021/05/03 05:31:36;;;;;;;14.60;10.07;;;6.20;71.70;;;;;;4992010;28;20026;-91
2021/05/03 05:34:02;;;;;;;10.25;7.22;;;6.20;71.70;;;;;;4991833;28;20049;-91
2021/05/03 05:36:28;;;;;;;11.52;8.98;;;6.20;71.80;;;;;;4992184;28;20604;-89
2021/05/03 05:38:54;;;;;;;9.98;7.68;;;6.20;71.80;;;;;;4992033;28;20029;-90
2021/05/03 05:41:20;;;;;;;8.07;6.90;;;6.20;71.90;;;;;;4990784;28;20041;-87
2021/05/03 05:43:46;;;;;;;9.27;5.30;;;6.20;71.80;;;;;;4989336;28;20612;-87
2021/05/03 05:46:12;;;;;;;9.43;6.60;;;6.20;71.70;;;;;;4987816;28;20022;-87
2021/05/03 05:48:38;;;;;;;8.07;6.13;;;6.30;71.60;;;;;;4971342;28;20058;-87
2021/05/03 05:51:04;;;;;;;6.90;5.35;;;6.40;71.40;;;;;;4979513;28;20018;-87
2021/05/03 05:53:31;;;;;;;8.75;6.30;;;6.50;71.10;;;;;;4985061;28;20026;-86
2021/05/03 05:55:57;;;;;;;8.60;6.40;;;6.50;70.90;;;;;;4989176;28;20540;-87
2021/05/03 05:58:23;;;;;;;7.35;5.03;;;6.60;70.80;;;;;;4985242;28;20117;-87
2021/05/03 06:00:48;;;;;;;9.38;5.80;;;6.70;70.70;;;;;;4989816;28;20545;-86
2021/05/03 06:03:14;;;;;;;7.95;5.60;;;6.70;70.40;;;;;;4989699;28;20544;-88
2021/05/03 06:05:39;;;;;;;10.95;7.20;;;6.70;70.30;;;;;;4990289;28;20054;-87
2021/05/03 06:08:05;;;;;;;8.48;6.38;;;6.70;70.30;;;;;;4990204;28;20022;-87
2021/05/03 06:10:30;;;;;;;9.48;7.20;;;6.70;70.30;;;;;;4977078;28;20070;-86
2021/05/03 06:12:56;;;;;;;8.45;5.43;;;6.60;70.20;;;;;;4988909;28;20014;-90
2021/05/03 06:15:21;;;;;;;6.20;4.90;;;6.60;70.20;;;;;;4982744;28;20065;-89
2021/05/03 06:17:47;;;;;;;8.77;6.68;;;6.70;70.10;;;;;;4990378;28;20026;-89
2021/05/03 06:20:13;;;;;;;9.32;6.68;;;6.70;70.00;;;;;;4985789;28;20023;-90
2021/05/03 06:22:39;;;;;;;6.10;4.65;;;6.70;70.00;;;;;;4991869;28;20031;-90
2021/05/03 06:25:06;;;;;;;10.88;7.38;;;6.70;69.90;;;;;;4992557;28;20018;-89
2021/05/03 06:27:32;;;;;;;7.95;6.22;;;6.70;69.80;;;;;;4991858;28;20022;-90
2021/05/03 06:29:58;;;;;;;9.25;7.28;;;6.80;69.80;;;;;;4993702;28;20034;-89
2021/05/03 06:32:23;;;;;;;7.53;6.22;;;6.80;69.70;;;;;;4995374;28;20022;-90
2021/05/03 06:34:49;;;;;;;7.38;5.60;;;6.80;69.60;;;;;;4994326;28;20017;-89
2021/05/03 06:37:15;;;;;;;7.80;5.57;;;6.90;69.50;;;;;;4993702;28;20432;-88
2021/05/03 06:39:40;;;;;;;9.50;6.90;;;7.00;69.30;;;;;;4995138;28;20026;-88
2021/05/03 06:42:06;;;;;;;7.03;5.05;;;7.00;69.10;;;;;;4993524;28;20588;-88
2021/05/03 06:44:34;;;;;;;8.65;6.18;;;7.10;69.00;;;;;;4992461;28;20125;-89
2021/05/03 06:47:01;;;;;;;6.72;4.88;;;7.20;68.80;;;;;;4992664;28;20113;-86
2021/05/03 06:49:27;;;;;;;7.35;5.20;;;7.30;68.50;;;;;;4993849;28;20026;-89
2021/05/03 06:51:52;;;;;;;7.43;5.43;;;7.30;68.10;;;;;;4992877;28;20102;-87
2021/05/03 06:54:18;;;;;;;7.75;5.38;;;7.40;67.90;;;;;;4992075;28;20089;-88
2021/05/03 06:56:45;;;;;;;7.70;5.60;;;7.50;67.60;;;;;;4990785;28;20034;-88
2021/05/03 06:59:10;;;;;;;6.53;5.45;;;7.60;67.20;;;;;;4991619;28;20052;-92
2021/05/03 07:01:36;;;;;;;8.55;5.20;;;7.70;66.80;;;;;;4994315;28;20113;-89
2021/05/03 07:04:02;;;;;;;7.05;4.63;;;7.80;66.50;;;;;;4991092;28;20031;-89
2021/05/03 07:06:27;;;;;;;5.53;4.47;;;7.90;66.20;;;;;;4993254;28;20026;-88
2021/05/03 07:08:53;;;;;;;6.45;4.70;;;7.90;66.00;;;;;;4992336;28;20511;-87
2021/05/03 07:11:21;;;;;;;6.22;4.30;;;8.00;66.40;;;;;;4994584;28;20027;-91
2021/05/03 07:13:50;;;;;;;6.88;5.03;;;8.10;65.40;;;;;;4994916;28;20052;-91
2021/05/03 07:16:15;;;;;;;5.40;4.10;;;8.20;65.20;;;;;;4994660;28;20018;-90
2021/05/03 07:18:41;;;;;;;3.65;2.90;;;8.30;65.00;;;;;;4994702;28;20049;-88
2021/05/03 07:21:06;;;;;;;5.90;4.68;;;8.40;64.60;;;;;;4992419;28;20101;-91
2021/05/03 07:23:32;;;;;;;5.28;4.20;;;8.50;63.90;;;;;;4993966;28;20521;-91
2021/05/03 07:25:59;;;;;;;4.85;4.03;;;8.70;63.60;;;;;;4992578;28;20029;-89
2021/05/03 07:28:24;;;;;;;7.80;5.13;;;8.80;63.10;;;;;;4993940;28;20022;-90
2021/05/03 07:30:57;;;;;;;6.72;5.03;;;9.10;62.20;;;;;;4992119;28;20081;-90
2021/05/03 07:33:23;;;;;;;7.95;4.68;;;9.30;61.70;;;;;;4994247;28;20042;-90
2021/05/03 07:35:49;;;;;;;4.82;3.78;;;9.60;60.90;;;;;;4992554;28;20496;-89
2021/05/03 07:38:14;;;;;;;5.45;4.57;;;9.90;60.40;;;;;;4993359;28;20034;-87
2021/05/03 07:40:40;;;;;;;6.63;4.47;;;10.10;59.80;;;;;;4992838;28;20473;-89
2021/05/03 07:43:05;;;;;;;5.10;4.25;;;10.50;59.40;;;;;;4993855;28;20428;-92
2021/05/03 07:45:31;;;;;;;7.00;5.53;;;10.80;58.70;;;;;;4994503;28;20077;-91
2021/05/03 07:47:57;;;;;;;8.15;5.72;;;11.00;58.00;;;;;;4992338;28;20022;-90
2021/05/03 07:50:22;;;;;;;6.97;4.50;;;11.00;57.60;;;;;;4993851;28;20065;-91
2021/05/03 07:52:48;;;;;;;8.70;5.97;;;11.20;57.70;;;;;;4993419;28;20045;-90
2021/05/03 07:55:14;;;;;;;7.60;5.55;;;11.10;57.20;;;;;;4994004;28;20096;-89
2021/05/03 07:57:39;;;;;;;6.97;5.47;;;11.20;57.40;;;;;;4993589;28;20030;-92
2021/05/03 08:00:06;;;;;;;7.13;4.97;;;11.40;57.20;;;;;;4991919;28;20035;-91
2021/05/03 08:02:35;;;;;;;6.82;5.18;;;11.50;57.20;;;;;;4993261;28;20042;-87
2021/05/03 08:05:01;;;;;;;6.68;5.20;;;11.50;57.10;;;;;;4993055;28;20080;-89
2021/05/03 08:07:27;;;;;;;7.00;5.60;;;11.60;57.10;;;;;;4993183;28;20547;-91
2021/05/03 08:09:55;;;;;;;8.20;6.13;;;11.60;57.10;;;;;;4992892;28;20117;-91
2021/05/03 08:12:21;;;;;;;10.60;8.25;;;11.80;57.20;;;;;;4993446;28;20042;-91
2021/05/03 08:14:48;;;;;;;10.25;7.90;;;11.80;56.80;;;;;;4991868;28;20104;-89
2021/05/03 08:17:16;;;;;;;8.60;6.63;;;11.80;56.90;;;;;;4990679;28;20030;-88
2021/05/03 08:19:42;;;;;;;9.05;7.28;;;12.00;57.20;;;;;;4990849;28;20019;-87
2021/05/03 08:22:08;;;;;;;12.63;9.75;;;12.10;57.10;;;;;;4992676;28;20126;-88
2021/05/03 08:24:34;;;;;;;10.98;8.57;;;12.00;56.70;;;;;;4990789;28;20438;-87
2021/05/03 08:27:01;;;;;;;9.38;6.85;;;12.20;57.00;;;;;;4991695;28;20036;-88
2021/05/03 08:29:27;;;;;;;12.38;10.20;;;12.30;57.00;;;;;;4992223;28;20033;-87
2021/05/03 08:31:54;;;;;;;11.93;9.63;;;12.40;56.50;;;;;;4992008;28;20026;-87
2021/05/03 08:34:20;;;;;;;12.68;8.80;;;12.50;57.00;;;;;;4992553;28;20046;-88
2021/05/03 08:36:45;;;;;;;11.32;9.77;;;12.60;56.40;;;;;;4991146;28;20488;-89
2021/05/03 08:39:11;;;;;;;10.38;8.18;;;12.70;55.80;;;;;;4994028;28;20026;-90
2021/05/03 08:41:38;;;;;;;12.85;10.52;;;12.80;56.00;;;;;;4991272;28;20018;-90
2021/05/03 08:44:04;;;;;;;11.40;9.15;;;12.80;55.70;;;;;;4989700;28;20034;-91
2021/05/03 08:46:31;;;;;;;10.73;8.80;;;12.80;55.80;;;;;;4990788;28;20085;-88
2021/05/03 08:49:14;;;;;;;8.70;7.63;;;12.90;55.80;;;;;;4990845;28;20029;-87
2021/05/03 08:51:47;;;;;;;;;;;13.00;55.80;;;;;;4990423;28;20022;-88
2021/05/03 08:56:45;;;;;;;10.23;9.02;;;13.20;55.50;;;;;;4991139;28;20473;-90
2021/05/03 08:59:13;;;;;;;11.88;9.40;;;13.20;55.20;;;;;;4990251;28;20038;-88
2021/05/03 09:01:42;;;;;;;13.00;9.90;;;13.30;55.00;;;;;;4987918;28;20022;-89
2021/05/03 09:04:07;;;;;;;11.13;9.43;;;13.30;54.70;;;;;;4990077;28;20046;-87
2021/05/03 09:06:33;;;;;;;11.18;9.27;;;13.40;54.50;;;;;;4989485;28;20076;-87
2021/05/03 09:09:07;;;;;;;11.80;9.27;;;13.50;54.60;;;;;;4990579;28;20120;-88
2021/05/03 09:11:35;;;;;;;9.13;7.75;;;13.50;54.10;;;;;;4990535;28;20029;-88
2021/05/03 09:14:09;;;;;;;11.52;8.75;;;13.60;54.10;;;;;;4991461;28;20069;-88
2021/05/03 09:16:45;;;;;;;10.18;8.30;;;13.70;54.00;;;;;;4988896;28;20062;-88
2021/05/03 09:19:12;;;;;;;13.73;11.30;;;13.80;53.90;;;;;;4990362;28;20014;-89
2021/05/03 09:21:39;;;;;;;8.88;7.35;;;14.00;53.40;;;;;;4990095;28;20038;-92
2021/05/03 09:24:13;;;;;;;8.50;7.25;;;14.10;53.30;;;;;;4989947;28;20045;-91
2021/05/03 09:27:01;;;;;;;9.98;8.35;;;14.20;53.20;;;;;;4990926;28;20027;-89
2021/05/03 09:29:32;;;;;;;14.88;11.38;;;14.20;53.30;;;;;;4990228;28;20034;-89
2021/05/03 09:32:22;;;;;;;10.90;9.43;;;14.10;51.50;;;;;;4989832;28;20026;-87
2021/05/03 09:34:51;;;;;;;9.25;8.02;;;14.10;51.90;;;;;;4983130;28;20026;-90
2021/05/03 09:37:21;;;;;;;11.80;9.32;;;14.10;51.90;;;;;;4990137;28;20025;-89
2021/05/03 09:39:55;;;;;;;9.18;8.25;;;14.20;51.80;;;;;;4988118;28;20536;-86
2021/05/03 09:42:21;;;;;;;8.93;7.60;;;14.30;51.90;;;;;;4990289;28;20050;-89
2021/05/03 09:45:06;;;;;;;8.98;7.50;;;14.50;52.00;;;;;;4989560;28;20077;-89
2021/05/03 09:47:34;;;;;;;8.10;6.88;;;14.70;52.00;;;;;;4984743;28;20072;-90
2021/05/03 09:50:10;;;;;;;10.23;8.68;;;14.90;51.70;;;;;;4990179;28;20025;-88
2021/05/03 09:52:36;;;;;;;8.77;7.70;;;15.00;50.40;;;;;;4986733;28;20025;-89
2021/05/03 09:55:02;;;;;;;7.53;6.55;;;14.90;49.70;;;;;;4988329;28;20033;-88
2021/05/03 09:57:28;;;;;;;12.43;9.73;;;14.90;49.80;;;;;;4990286;28;20054;-90
2021/05/03 09:59:54;;;;;;;10.10;8.90;;;14.90;49.20;;;;;;4989565;28;20049;-89
2021/05/03 10:02:28;;;;;;;9.35;7.72;;;15.00;49.20;;;;;;4987522;28;20022;-89
2021/05/03 10:05:17;;;;;;;10.10;7.88;;;15.00;49.10;;;;;;4992105;28;20038;-88
2021/05/03 10:07:51;;;;;;;10.18;7.38;;;15.00;49.00;;;;;;4992484;28;20022;-88
2021/05/03 10:10:20;;;;;;;9.45;7.93;;;14.90;48.40;;;;;;4987986;28;20065;-89
2021/05/03 10:12:46;;;;;;;7.13;5.95;;;14.90;48.70;;;;;;4992145;28;20030;-89
2021/05/03 10:15:14;;;;;;;8.07;6.60;;;15.00;49.10;;;;;;4990926;28;20033;-89
2021/05/03 10:17:42;;;;;;;8.73;7.30;;;15.00;48.40;;;;;;4993694;28;20080;-88
2021/05/03 10:20:09;;;;;;;9.73;7.70;;;15.10;48.50;;;;;;4992786;28;20083;-89
2021/05/03 10:22:35;;;;;;;9.35;7.60;;;15.20;48.40;;;;;;4991748;28;20096;-89
2021/05/03 10:25:07;;;;;;;9.00;7.53;;;15.30;48.40;;;;;;4987768;28;20509;-90
2021/05/03 10:27:37;;;;;;;10.25;8.48;;;15.50;47.90;;;;;;5000839;28;20046;-88
2021/05/03 10:30:11;;;;;;;8.50;7.60;;;15.40;47.30;;;;;;4991445;28;20030;-87
2021/05/03 10:32:37;;;;;;;8.73;7.25;;;15.50;47.30;;;;;;4985844;28;20026;-86
2021/05/03 10:35:08;;;;;;;10.15;8.55;;;15.50;47.40;;;;;;4990344;28;20026;-86
2021/05/03 10:37:41;;;;;;;9.48;7.63;;;15.50;46.90;;;;;;4990329;28;20089;-88
2021/05/03 10:40:33;;;;;;;9.57;7.75;;;15.40;47.20;;;;;;4990951;28;20113;-87
2021/05/03 10:43:02;;;;;;;8.88;7.97;;;15.40;47.00;;;;;;4988914;28;20050;-88
2021/05/03 10:45:44;;;;;;;8.13;6.95;;;15.40;47.10;;;;;;4989374;28;20042;-88
2021/05/03 10:48:33;;;;;;;8.73;7.60;;;15.40;47.00;;;;;;4989840;28;20119;-88
2021/05/03 10:51:00;;;;;;;6.75;5.60;;;15.40;46.90;;;;;;4982231;28;20481;-87
2021/05/03 10:56:05;;;;;;;9.07;8.05;;;15.60;47.10;;;;;;4994005;28;20038;-88
2021/05/03 10:58:51;;;;;;;8.55;6.68;;;15.50;46.10;;;;;;4992552;28;20046;-90
2021/05/03 11:01:19;;;;;;;10.23;7.70;;;15.60;46.50;;;;;;4989361;28;20057;-89
2021/05/03 11:03:57;;;;;;;9.88;8.68;;;15.60;46.10;;;;;;4984596;28;20038;-93
2021/05/03 11:06:48;;;;;;;7.75;6.95;;;15.50;45.60;;;;;;4992127;28;20026;-93
2021/05/03 11:09:39;;;;;;;8.45;7.10;;;15.50;45.40;;;;;;4987041;28;20078;-94
2021/05/03 11:12:12;;;;;;;8.50;7.05;;;15.70;45.60;;;;;;4986981;28;20187;-90
2021/05/03 11:15:02;;;;;;;6.95;5.72;;;15.80;45.20;;;;;;4992288;28;20639;-89
2021/05/03 11:17:28;;;;;;;8.65;7.35;;;15.80;45.30;;;;;;4990394;28;20030;-90
2021/05/03 11:23:00;;;;;;;7.93;7.05;;;15.70;44.70;;;;;;4990166;28;20034;-91
2021/05/03 11:25:28;;;;;;;9.93;7.53;;;15.70;45.00;;;;;;4991192;28;20125;-91
2021/05/03 11:30:51;;;;;;;7.22;6.47;;;15.80;44.30;;;;;;4983173;28;20104;-87
2021/05/03 11:33:24;;;;;;;6.70;6.00;;;15.70;43.50;;;;;;4989639;28;20096;-86
2021/05/03 11:36:03;;;;;;;5.35;4.85;;;15.80;42.90;;;;;;4990490;28;20023;-88
2021/05/03 11:38:37;;;;;;;7.72;5.93;;;15.80;42.80;;;;;;4993308;28;20023;-87
2021/05/03 11:46:07;;;;;;;6.70;5.85;;;15.80;42.80;;;;;;4993918;28;20026;-90
2021/05/03 11:48:33;;;;;;;6.50;5.50;;;15.80;43.60;;;;;;4992418;28;20030;-94
2021/05/03 11:51:13;;;;;;;6.88;5.15;;;15.90;43.00;;;;;;4991683;28;20666;-92
2021/05/03 11:53:43;;;;;;;6.88;4.85;;;16.00;43.00;;;;;;4992852;28;20049;-95
2021/05/03 11:56:29;;;;;;;7.38;5.93;;;16.10;42.50;;;;;;4984828;28;20633;-91
2021/05/03 11:58:57;;;;;;;7.45;6.70;;;16.20;41.80;;;;;;4988727;28;20037;-89
2021/05/03 12:01:26;;;;;;;6.03;5.07;;;16.20;41.10;;;;;;4992160;28;20062;-93
2021/05/03 12:03:57;;;;;;;5.15;4.32;;;16.30;41.50;;;;;;4992859;28;20050;-93
2021/05/03 12:06:49;;;;;;;5.68;5.03;;;16.50;41.30;;;;;;4991871;28;20056;-92
2021/05/03 12:09:21;;;;;;;5.75;5.00;;;16.70;40.60;;;;;;4991765;28;20201;-91
2021/05/03 12:12:01;;;;;;;6.72;5.20;;;16.70;40.30;;;;;;4992311;28;20065;-92
2021/05/03 12:14:49;;;;;;;5.35;4.85;;;16.60;39.90;;;;;;4994118;28;20117;-94
2021/05/03 12:17:17;;;;;;;6.55;5.53;;;16.40;39.30;;;;;;4989489;28;20027;-90
2021/05/03 12:19:47;;;;;;;7.40;6.60;;;16.30;39.70;;;;;;4992191;28;20101;-89
2021/05/03 12:22:14;;;;;;;5.65;4.53;;;16.20;39.20;;;;;;4990463;28;20081;-89
2021/05/03 12:24:44;;;;;;;7.10;6.15;;;16.10;39.90;;;;;;4992228;28;20392;-89
2021/05/03 12:27:11;;;;;;;6.03;4.47;;;16.10;39.80;;;;;;4991135;28;20126;-89
2021/05/03 12:29:40;;;;;;;4.43;3.42;;;16.20;40.20;;;;;;4990196;28;20030;-90
2021/05/03 12:32:17;;;;;;;8.93;7.38;;;16.30;40.60;;;;;;4990171;28;20027;-89
2021/05/03 12:34:48;;;;;;;7.28;6.55;;;16.40;39.60;;;;;;4988642;28;20511;-90
2021/05/03 12:37:22;;;;;;;8.07;5.57;;;16.30;39.00;;;;;;4990479;28;20053;-89
2021/05/03 12:40:04;;;;;;;5.38;4.70;;;16.30;39.00;;;;;;4991490;28;20023;-89
2021/05/03 12:42:37;;;;;;;8.55;5.68;;;16.50;39.30;;;;;;5002153;28;20061;-91
2021/05/03 12:45:30;;;;;;;5.47;4.97;;;16.50;39.10;;;;;;5007339;28;20030;-90
2021/05/03 12:50:44;;;;;;;6.47;5.15;;;16.40;39.40;;;;;;4993307;28;20398;-89
2021/05/03 12:53:32;;;;;;;8.68;6.80;;;16.40;39.50;;;;;;4989538;28;20022;-91
2021/05/03 12:59:10;;;;;;;7.32;5.95;;;16.70;39.00;;;;;;4992547;28;20042;-89
2021/05/03 13:04:28;;;;;;;7.13;6.40;;;17.00;39.30;;;;;;4988110;28;20084;-92
2021/05/03 13:29:13;;;;;;;5.78;4.88;;;17.20;37.40;;;;;;4987042;28;20125;-90
2021/05/03 13:31:42;;;;;;;6.50;5.50;;;17.20;37.40;;;;;;4991240;28;20022;-93
2021/05/03 13:34:10;;;;;;;6.88;5.57;;;17.40;37.40;;;;;;4994546;28;20037;-91
2021/05/03 13:36:36;;;;;;;5.68;4.90;;;17.30;37.10;;;;;;4989713;28;20030;-87
2021/05/03 13:39:04;;;;;;;3.90;3.50;;;17.40;37.00;;;;;;4992156;28;20019;-89
2021/05/03 13:41:33;;;;;;;7.00;5.47;;;17.50;37.10;;;;;;4990482;28;20031;-91
2021/05/03 13:43:59;;;;;;;6.10;5.38;;;17.40;36.60;;;;;;4991213;28;20038;-93
2021/05/03 13:46:24;;;;;;;9.13;5.60;;;17.30;36.50;;;;;;4991643;28;20088;-93
2021/05/03 13:48:50;;;;;;;6.53;4.22;;;17.20;36.60;;;;;;4994444;28;20056;-91
2021/05/03 13:51:15;;;;;;;8.20;5.53;;;17.20;37.10;;;;;;4991295;28;20018;-93
2021/05/03 13:53:41;;;;;;;5.18;4.60;;;17.20;36.60;;;;;;4991508;28;20026;-92